sensor_id;sensor_type;location;lat;lon;timestamp;temperature;humidity
52963;DHT22;38827;53.024;6.596;2023-12-29T00:01:33;10.40;80.00
52963;DHT22;38827;53.024;6.596;2023-12-29T00:03:58;10.40;79.80
52963;DHT22;38827;53.024;6.596;2023-12-29T00:06:24;10.40;79.80
52963;DHT22;38827;53.024;6.596;2023-12-29T00:08:50;10.50;79.90
52963;DHT22;38827;53.024;6.596;2023-12-29T00:11:22;10.50;79.70
52963;DHT22;38827;53.024;6.596;2023-12-29T00:13:48;10.50;79.70
52963;DHT22;38827;53.024;6.596;2023-12-29T00:16:15;10.40;79.70
52963;DHT22;38827;53.024;6.596;2023-12-29T00:18:40;10.50;79.70
52963;DHT22;38827;53.024;6.596;2023-12-29T00:21:07;10.40;79.90
52963;DHT22;38827;53.024;6.596;2023-12-29T00:23:33;10.40;79.90
52963;DHT22;38827;53.024;6.596;2023-12-29T00:25:59;10.40;79.80
52963;DHT22;38827;53.024;6.596;2023-12-29T00:28:34;10.40;79.80
52963;DHT22;38827;53.024;6.596;2023-12-29T00:31:02;10.40;79.80
52963;DHT22;38827;53.024;6.596;2023-12-29T00:33:28;10.30;79.80
52963;DHT22;38827;53.024;6.596;2023-12-29T00:35:53;10.40;79.80
52963;DHT22;38827;53.024;6.596;2023-12-29T00:38:19;10.30;79.80
52963;DHT22;38827;53.024;6.596;2023-12-29T00:40:45;10.40;79.80
52963;DHT22;38827;53.024;6.596;2023-12-29T00:43:10;10.40;79.90
52963;DHT22;38827;53.024;6.596;2023-12-29T00:45:36;10.40;79.90
52963;DHT22;38827;53.024;6.596;2023-12-29T00:48:02;10.30;80.10
52963;DHT22;38827;53.024;6.596;2023-12-29T00:50:28;10.30;80.00
52963;DHT22;38827;53.024;6.596;2023-12-29T00:52:54;10.40;80.00
52963;DHT22;38827;53.024;6.596;2023-12-29T00:55:19;10.40;80.10
52963;DHT22;38827;53.024;6.596;2023-12-29T00:57:45;10.30;80.30
52963;DHT22;38827;53.024;6.596;2023-12-29T01:00:12;10.30;80.50
52963;DHT22;38827;53.024;6.596;2023-12-29T01:02:39;10.30;80.50
52963;DHT22;38827;53.024;6.596;2023-12-29T01:05:05;10.30;80.90
52963;DHT22;38827;53.024;6.596;2023-12-29T01:07:31;10.20;81.30
52963;DHT22;38827;53.024;6.596;2023-12-29T01:09:56;10.20;81.70
52963;DHT22;38827;53.024;6.596;2023-12-29T01:12:22;10.20;82.40
52963;DHT22;38827;53.024;6.596;2023-12-29T01:14:48;10.10;82.80
52963;DHT22;38827;53.024;6.596;2023-12-29T01:17:13;10.00;83.10
52963;DHT22;38827;53.024;6.596;2023-12-29T01:19:39;10.00;83.30
52963;DHT22;38827;53.024;6.596;2023-12-29T01:22:05;10.00;83.50
52963;DHT22;38827;53.024;6.596;2023-12-29T01:24:30;10.00;83.50
52963;DHT22;38827;53.024;6.596;2023-12-29T01:26:56;10.00;83.60
52963;DHT22;38827;53.024;6.596;2023-12-29T01:29:22;10.00;83.40
52963;DHT22;38827;53.024;6.596;2023-12-29T01:31:48;10.00;83.50
52963;DHT22;38827;53.024;6.596;2023-12-29T01:34:13;10.00;83.60
52963;DHT22;38827;53.024;6.596;2023-12-29T01:36:39;10.00;83.60
52963;DHT22;38827;53.024;6.596;2023-12-29T01:39:05;10.00;83.80
52963;DHT22;38827;53.024;6.596;2023-12-29T01:41:30;9.90;84.10
52963;DHT22;38827;53.024;6.596;2023-12-29T01:46:24;9.90;84.20
52963;DHT22;38827;53.024;6.596;2023-12-29T01:48:51;9.90;84.30
52963;DHT22;38827;53.024;6.596;2023-12-29T01:51:17;9.90;84.40
52963;DHT22;38827;53.024;6.596;2023-12-29T01:53:44;9.90;84.60
52963;DHT22;38827;53.024;6.596;2023-12-29T01:56:10;9.90;85.10
52963;DHT22;38827;53.024;6.596;2023-12-29T01:58:36;9.90;84.80
52963;DHT22;38827;53.024;6.596;2023-12-29T02:01:03;9.90;84.80
52963;DHT22;38827;53.024;6.596;2023-12-29T02:03:30;9.90;84.60
52963;DHT22;38827;53.024;6.596;2023-12-29T02:05:57;9.90;84.60
52963;DHT22;38827;53.024;6.596;2023-12-29T02:08:22;9.90;84.60
52963;DHT22;38827;53.024;6.596;2023-12-29T02:10:51;9.90;85.00
52963;DHT22;38827;53.024;6.596;2023-12-29T02:13:17;9.90;84.80
52963;DHT22;38827;53.024;6.596;2023-12-29T02:15:42;9.90;84.90
52963;DHT22;38827;53.024;6.596;2023-12-29T02:18:14;9.90;85.20
52963;DHT22;38827;53.024;6.596;2023-12-29T02:20:41;9.80;83.40
52963;DHT22;38827;53.024;6.596;2023-12-29T02:23:07;9.30;79.90
52963;DHT22;38827;53.024;6.596;2023-12-29T02:25:34;8.80;80.70
52963;DHT22;38827;53.024;6.596;2023-12-29T02:28:08;8.30;81.90
52963;DHT22;38827;53.024;6.596;2023-12-29T02:30:43;8.10;82.40
52963;DHT22;38827;53.024;6.596;2023-12-29T02:33:18;7.90;83.10
52963;DHT22;38827;53.024;6.596;2023-12-29T02:35:45;7.90;83.40
52963;DHT22;38827;53.024;6.596;2023-12-29T02:38:12;7.80;83.70
52963;DHT22;38827;53.024;6.596;2023-12-29T02:40:38;7.90;83.90
52963;DHT22;38827;53.024;6.596;2023-12-29T02:43:04;7.90;84.10
52963;DHT22;38827;53.024;6.596;2023-12-29T02:45:30;7.90;85.40
52963;DHT22;38827;53.024;6.596;2023-12-29T02:47:55;8.00;86.30
52963;DHT22;38827;53.024;6.596;2023-12-29T02:50:21;8.20;87.20
52963;DHT22;38827;53.024;6.596;2023-12-29T02:52:47;8.50;88.00
52963;DHT22;38827;53.024;6.596;2023-12-29T02:55:12;8.70;87.70
52963;DHT22;38827;53.024;6.596;2023-12-29T02:57:38;8.90;87.30
52963;DHT22;38827;53.024;6.596;2023-12-29T03:00:05;9.10;87.00
52963;DHT22;38827;53.024;6.596;2023-12-29T03:02:31;9.20;86.50
52963;DHT22;38827;53.024;6.596;2023-12-29T03:12:38;9.50;85.90
52963;DHT22;38827;53.024;6.596;2023-12-29T03:40:52;9.90;84.50
52963;DHT22;38827;53.024;6.596;2023-12-29T03:54:04;9.80;83.00
52963;DHT22;38827;53.024;6.596;2023-12-29T03:56:30;9.80;82.70
52963;DHT22;38827;53.024;6.596;2023-12-29T03:58:58;9.90;82.70
52963;DHT22;38827;53.024;6.596;2023-12-29T04:01:24;9.90;82.70
52963;DHT22;38827;53.024;6.596;2023-12-29T04:03:50;9.90;82.80
52963;DHT22;38827;53.024;6.596;2023-12-29T04:06:16;9.80;82.80
52963;DHT22;38827;53.024;6.596;2023-12-29T04:08:42;9.80;82.80
52963;DHT22;38827;53.024;6.596;2023-12-29T04:11:07;9.80;82.80
52963;DHT22;38827;53.024;6.596;2023-12-29T04:13:34;9.70;82.70
52963;DHT22;38827;53.024;6.596;2023-12-29T04:16:00;9.70;82.60
52963;DHT22;38827;53.024;6.596;2023-12-29T04:18:26;9.70;82.60
52963;DHT22;38827;53.024;6.596;2023-12-29T04:20:53;9.60;82.60
52963;DHT22;38827;53.024;6.596;2023-12-29T04:23:18;9.60;82.60
52963;DHT22;38827;53.024;6.596;2023-12-29T04:25:44;9.60;82.40
52963;DHT22;38827;53.024;6.596;2023-12-29T04:28:10;9.60;82.40
52963;DHT22;38827;53.024;6.596;2023-12-29T04:30:35;9.60;82.20
52963;DHT22;38827;53.024;6.596;2023-12-29T04:33:01;9.60;82.00
52963;DHT22;38827;53.024;6.596;2023-12-29T04:35:27;9.60;81.80
52963;DHT22;38827;53.024;6.596;2023-12-29T04:37:53;9.60;81.70
52963;DHT22;38827;53.024;6.596;2023-12-29T04:40:18;9.60;81.70
52963;DHT22;38827;53.024;6.596;2023-12-29T04:42:44;9.60;81.70
52963;DHT22;38827;53.024;6.596;2023-12-29T04:45:10;9.60;81.80
52963;DHT22;38827;53.024;6.596;2023-12-29T04:47:36;9.60;81.90
52963;DHT22;38827;53.024;6.596;2023-12-29T04:50:02;9.60;82.10
52963;DHT22;38827;53.024;6.596;2023-12-29T04:52:28;9.50;82.30
52963;DHT22;38827;53.024;6.596;2023-12-29T04:54:53;9.50;82.60
52963;DHT22;38827;53.024;6.596;2023-12-29T04:57:19;9.50;82.60
52963;DHT22;38827;53.024;6.596;2023-12-29T04:59:45;9.40;82.80
52963;DHT22;38827;53.024;6.596;2023-12-29T05:02:10;9.40;82.80
52963;DHT22;38827;53.024;6.596;2023-12-29T05:04:36;9.50;82.90
52963;DHT22;38827;53.024;6.596;2023-12-29T05:07:07;9.50;82.80
52963;DHT22;38827;53.024;6.596;2023-12-29T05:09:36;9.50;82.10
52963;DHT22;38827;53.024;6.596;2023-12-29T05:12:02;9.50;81.70
52963;DHT22;38827;53.024;6.596;2023-12-29T05:14:27;9.60;81.50
52963;DHT22;38827;53.024;6.596;2023-12-29T05:16:53;9.60;81.00
52963;DHT22;38827;53.024;6.596;2023-12-29T05:19:19;9.60;80.40
52963;DHT22;38827;53.024;6.596;2023-12-29T05:21:45;9.70;80.10
52963;DHT22;38827;53.024;6.596;2023-12-29T05:24:11;9.70;79.40
52963;DHT22;38827;53.024;6.596;2023-12-29T05:26:37;9.70;79.10
52963;DHT22;38827;53.024;6.596;2023-12-29T05:29:03;9.70;78.90
52963;DHT22;38827;53.024;6.596;2023-12-29T05:31:30;9.70;78.00
52963;DHT22;38827;53.024;6.596;2023-12-29T05:33:56;9.70;77.60
52963;DHT22;38827;53.024;6.596;2023-12-29T05:36:21;9.70;77.10
52963;DHT22;38827;53.024;6.596;2023-12-29T05:38:47;9.70;77.10
52963;DHT22;38827;53.024;6.596;2023-12-29T05:41:13;9.80;76.70
52963;DHT22;38827;53.024;6.596;2023-12-29T05:43:39;9.80;76.40
52963;DHT22;38827;53.024;6.596;2023-12-29T05:46:12;9.80;76.30
52963;DHT22;38827;53.024;6.596;2023-12-29T05:48:38;9.80;75.90
52963;DHT22;38827;53.024;6.596;2023-12-29T05:51:11;9.80;75.70
52963;DHT22;38827;53.024;6.596;2023-12-29T05:53:40;9.80;75.10
52963;DHT22;38827;53.024;6.596;2023-12-29T05:56:06;9.80;75.20
52963;DHT22;38827;53.024;6.596;2023-12-29T05:58:32;9.90;74.90
52963;DHT22;38827;53.024;6.596;2023-12-29T06:00:58;9.90;74.80
52963;DHT22;38827;53.024;6.596;2023-12-29T06:03:27;9.90;74.80
52963;DHT22;38827;53.024;6.596;2023-12-29T06:05:53;9.90;74.90
52963;DHT22;38827;53.024;6.596;2023-12-29T06:08:19;9.90;74.70
52963;DHT22;38827;53.024;6.596;2023-12-29T06:10:45;9.90;74.50
52963;DHT22;38827;53.024;6.596;2023-12-29T06:13:10;9.90;74.60
52963;DHT22;38827;53.024;6.596;2023-12-29T06:15:36;9.80;74.60
52963;DHT22;38827;53.024;6.596;2023-12-29T06:18:02;9.80;74.30
52963;DHT22;38827;53.024;6.596;2023-12-29T06:20:28;9.90;74.20
52963;DHT22;38827;53.024;6.596;2023-12-29T06:22:55;9.90;73.90
52963;DHT22;38827;53.024;6.596;2023-12-29T06:25:20;9.90;73.90
52963;DHT22;38827;53.024;6.596;2023-12-29T06:27:46;9.90;74.10
52963;DHT22;38827;53.024;6.596;2023-12-29T06:30:12;9.90;74.10
52963;DHT22;38827;53.024;6.596;2023-12-29T06:32:38;9.80;74.40
52963;DHT22;38827;53.024;6.596;2023-12-29T06:35:04;9.80;74.90
52963;DHT22;38827;53.024;6.596;2023-12-29T06:37:31;9.80;75.30
52963;DHT22;38827;53.024;6.596;2023-12-29T06:39:56;9.80;75.90
52963;DHT22;38827;53.024;6.596;2023-12-29T06:42:22;9.80;76.30
52963;DHT22;38827;53.024;6.596;2023-12-29T06:44:48;9.70;76.70
52963;DHT22;38827;53.024;6.596;2023-12-29T06:47:14;9.70;76.90
52963;DHT22;38827;53.024;6.596;2023-12-29T06:49:40;9.70;77.20
52963;DHT22;38827;53.024;6.596;2023-12-29T06:52:21;9.70;77.40
52963;DHT22;38827;53.024;6.596;2023-12-29T06:54:47;9.70;77.80
52963;DHT22;38827;53.024;6.596;2023-12-29T06:57:12;9.70;78.00
52963;DHT22;38827;53.024;6.596;2023-12-29T06:59:39;9.70;78.40
52963;DHT22;38827;53.024;6.596;2023-12-29T07:02:05;9.60;79.20
52963;DHT22;38827;53.024;6.596;2023-12-29T07:04:31;9.60;79.10
52963;DHT22;38827;53.024;6.596;2023-12-29T07:06:56;9.60;79.20
52963;DHT22;38827;53.024;6.596;2023-12-29T07:09:22;9.60;79.40
52963;DHT22;38827;53.024;6.596;2023-12-29T07:11:48;9.60;79.50
52963;DHT22;38827;53.024;6.596;2023-12-29T07:14:15;9.60;79.70
52963;DHT22;38827;53.024;6.596;2023-12-29T07:16:41;9.60;80.10
52963;DHT22;38827;53.024;6.596;2023-12-29T07:19:06;9.60;80.40
52963;DHT22;38827;53.024;6.596;2023-12-29T07:21:32;9.60;80.50
52963;DHT22;38827;53.024;6.596;2023-12-29T07:23:58;9.60;80.70
52963;DHT22;38827;53.024;6.596;2023-12-29T07:26:23;9.60;80.90
52963;DHT22;38827;53.024;6.596;2023-12-29T07:28:49;9.60;81.10
52963;DHT22;38827;53.024;6.596;2023-12-29T07:31:22;9.60;81.30
52963;DHT22;38827;53.024;6.596;2023-12-29T07:33:49;9.60;81.30
52963;DHT22;38827;53.024;6.596;2023-12-29T07:36:15;9.60;81.50
52963;DHT22;38827;53.024;6.596;2023-12-29T07:38:40;9.50;81.40
52963;DHT22;38827;53.024;6.596;2023-12-29T07:41:08;9.50;81.30
52963;DHT22;38827;53.024;6.596;2023-12-29T07:43:35;9.50;81.10
52963;DHT22;38827;53.024;6.596;2023-12-29T07:46:01;9.60;80.90
52963;DHT22;38827;53.024;6.596;2023-12-29T07:48:27;9.60;80.80
52963;DHT22;38827;53.024;6.596;2023-12-29T07:53:25;9.70;80.50
52963;DHT22;38827;53.024;6.596;2023-12-29T07:55:51;9.70;80.50
52963;DHT22;38827;53.024;6.596;2023-12-29T07:58:18;9.60;80.60
52963;DHT22;38827;53.024;6.596;2023-12-29T08:00:44;9.60;80.70
52963;DHT22;38827;53.024;6.596;2023-12-29T08:03:11;9.60;80.80
52963;DHT22;38827;53.024;6.596;2023-12-29T08:05:36;9.60;80.90
52963;DHT22;38827;53.024;6.596;2023-12-29T08:08:02;9.60;81.00
52963;DHT22;38827;53.024;6.596;2023-12-29T08:10:28;9.60;81.00
52963;DHT22;38827;53.024;6.596;2023-12-29T08:12:54;9.60;80.80
52963;DHT22;38827;53.024;6.596;2023-12-29T08:15:20;9.70;80.60
52963;DHT22;38827;53.024;6.596;2023-12-29T08:17:45;9.70;80.60
52963;DHT22;38827;53.024;6.596;2023-12-29T08:20:11;9.70;80.70
52963;DHT22;38827;53.024;6.596;2023-12-29T08:22:37;9.70;80.70
52963;DHT22;38827;53.024;6.596;2023-12-29T08:25:03;9.60;80.90
52963;DHT22;38827;53.024;6.596;2023-12-29T08:27:29;9.60;81.00
52963;DHT22;38827;53.024;6.596;2023-12-29T08:29:55;9.60;81.50
52963;DHT22;38827;53.024;6.596;2023-12-29T08:34:56;9.60;82.10
52963;DHT22;38827;53.024;6.596;2023-12-29T08:37:21;9.60;82.10
52963;DHT22;38827;53.024;6.596;2023-12-29T08:39:47;9.60;82.40
52963;DHT22;38827;53.024;6.596;2023-12-29T08:42:16;9.60;82.60
52963;DHT22;38827;53.024;6.596;2023-12-29T08:44:41;9.60;82.60
52963;DHT22;38827;53.024;6.596;2023-12-29T08:47:07;9.60;82.60
52963;DHT22;38827;53.024;6.596;2023-12-29T08:49:37;9.60;82.60
52963;DHT22;38827;53.024;6.596;2023-12-29T08:52:04;9.50;82.90
52963;DHT22;38827;53.024;6.596;2023-12-29T08:54:29;9.50;83.30
52963;DHT22;38827;53.024;6.596;2023-12-29T08:56:55;9.50;83.40
52963;DHT22;38827;53.024;6.596;2023-12-29T08:59:24;9.50;83.70
52963;DHT22;38827;53.024;6.596;2023-12-29T09:01:50;9.40;84.10
52963;DHT22;38827;53.024;6.596;2023-12-29T09:04:19;9.40;84.20
52963;DHT22;38827;53.024;6.596;2023-12-29T09:06:44;9.40;84.20
52963;DHT22;38827;53.024;6.596;2023-12-29T09:09:15;9.40;84.00
52963;DHT22;38827;53.024;6.596;2023-12-29T09:11:47;9.40;83.80
52963;DHT22;38827;53.024;6.596;2023-12-29T09:14:14;9.40;84.10
52963;DHT22;38827;53.024;6.596;2023-12-29T09:16:41;9.40;84.30
52963;DHT22;38827;53.024;6.596;2023-12-29T09:19:08;9.40;84.50
52963;DHT22;38827;53.024;6.596;2023-12-29T09:21:33;9.40;84.60
52963;DHT22;38827;53.024;6.596;2023-12-29T09:23:59;9.50;84.60
52963;DHT22;38827;53.024;6.596;2023-12-29T09:26:25;9.50;84.70
52963;DHT22;38827;53.024;6.596;2023-12-29T09:28:50;9.50;84.30
52963;DHT22;38827;53.024;6.596;2023-12-29T09:31:30;9.50;84.00
52963;DHT22;38827;53.024;6.596;2023-12-29T09:37:21;9.60;83.30
52963;DHT22;38827;53.024;6.596;2023-12-29T09:39:47;9.60;83.30
52963;DHT22;38827;53.024;6.596;2023-12-29T09:42:21;9.70;83.20
52963;DHT22;38827;53.024;6.596;2023-12-29T09:44:51;9.70;83.00
52963;DHT22;38827;53.024;6.596;2023-12-29T09:47:23;9.80;83.00
52963;DHT22;38827;53.024;6.596;2023-12-29T09:49:52;9.80;82.90
52963;DHT22;38827;53.024;6.596;2023-12-29T09:52:20;9.80;82.90
52963;DHT22;38827;53.024;6.596;2023-12-29T09:54:48;9.80;83.00
52963;DHT22;38827;53.024;6.596;2023-12-29T10:01:23;9.90;82.90
52963;DHT22;38827;53.024;6.596;2023-12-29T10:03:58;9.90;83.00
52963;DHT22;38827;53.024;6.596;2023-12-29T10:06:24;9.90;82.70
52963;DHT22;38827;53.024;6.596;2023-12-29T10:09:02;10.00;82.90
52963;DHT22;38827;53.024;6.596;2023-12-29T10:11:35;10.00;82.70
52963;DHT22;38827;53.024;6.596;2023-12-29T10:14:23;10.00;82.70
52963;DHT22;38827;53.024;6.596;2023-12-29T10:16:55;10.00;82.40
52963;DHT22;38827;53.024;6.596;2023-12-29T10:22:08;10.10;82.40
52963;DHT22;38827;53.024;6.596;2023-12-29T10:24:41;10.10;82.10
52963;DHT22;38827;53.024;6.596;2023-12-29T10:27:17;10.10;82.20
52963;DHT22;38827;53.024;6.596;2023-12-29T10:29:43;10.20;82.10
52963;DHT22;38827;53.024;6.596;2023-12-29T10:32:09;10.20;82.10
52963;DHT22;38827;53.024;6.596;2023-12-29T10:34:35;10.20;81.90
52963;DHT22;38827;53.024;6.596;2023-12-29T10:37:22;10.20;81.60
52963;DHT22;38827;53.024;6.596;2023-12-29T10:39:55;10.20;81.10
52963;DHT22;38827;53.024;6.596;2023-12-29T10:42:24;10.20;81.10
52963;DHT22;38827;53.024;6.596;2023-12-29T10:45:16;10.20;81.20
52963;DHT22;38827;53.024;6.596;2023-12-29T10:48:06;10.30;80.90
52963;DHT22;38827;53.024;6.596;2023-12-29T10:50:51;10.30;80.90
52963;DHT22;38827;53.024;6.596;2023-12-29T10:53:17;10.30;80.80
52963;DHT22;38827;53.024;6.596;2023-12-29T10:55:43;10.30;80.60
52963;DHT22;38827;53.024;6.596;2023-12-29T11:00:39;10.40;80.20
52963;DHT22;38827;53.024;6.596;2023-12-29T11:03:05;10.40;80.00
52963;DHT22;38827;53.024;6.596;2023-12-29T11:05:32;10.40;79.90
52963;DHT22;38827;53.024;6.596;2023-12-29T11:08:21;10.40;79.10
52963;DHT22;38827;53.024;6.596;2023-12-29T11:10:54;10.50;78.90
52963;DHT22;38827;53.024;6.596;2023-12-29T11:13:21;10.50;78.70
52963;DHT22;38827;53.024;6.596;2023-12-29T11:15:47;10.60;78.70
52963;DHT22;38827;53.024;6.596;2023-12-29T11:18:14;10.60;78.20
52963;DHT22;38827;53.024;6.596;2023-12-29T11:20:41;10.50;78.30
52963;DHT22;38827;53.024;6.596;2023-12-29T11:23:11;10.60;77.90
52963;DHT22;38827;53.024;6.596;2023-12-29T11:25:40;10.60;77.40
52963;DHT22;38827;53.024;6.596;2023-12-29T11:28:26;10.60;76.80
52963;DHT22;38827;53.024;6.596;2023-12-29T11:30:52;10.60;76.20
52963;DHT22;38827;53.024;6.596;2023-12-29T11:33:40;10.60;75.90
52963;DHT22;38827;53.024;6.596;2023-12-29T11:36:23;10.60;74.60
52963;DHT22;38827;53.024;6.596;2023-12-29T11:39:27;10.50;72.90
52963;DHT22;38827;53.024;6.596;2023-12-29T11:42:19;10.50;70.30
52963;DHT22;38827;53.024;6.596;2023-12-29T11:44:55;10.40;69.90
52963;DHT22;38827;53.024;6.596;2023-12-29T11:47:37;10.30;71.00
52963;DHT22;38827;53.024;6.596;2023-12-29T11:50:06;10.30;70.70
52963;DHT22;38827;53.024;6.596;2023-12-29T11:52:38;10.30;71.20
52963;DHT22;38827;53.024;6.596;2023-12-29T12:03:29;10.20;71.10
52963;DHT22;38827;53.024;6.596;2023-12-29T12:06:06;10.10;72.10
52963;DHT22;38827;53.024;6.596;2023-12-29T12:08:40;10.00;72.50
52963;DHT22;38827;53.024;6.596;2023-12-29T12:14:01;9.90;73.10
52963;DHT22;38827;53.024;6.596;2023-12-29T12:19:13;9.80;73.60
52963;DHT22;38827;53.024;6.596;2023-12-29T12:22:07;9.80;74.10
52963;DHT22;38827;53.024;6.596;2023-12-29T12:24:55;9.80;73.70
52963;DHT22;38827;53.024;6.596;2023-12-29T12:27:38;9.80;73.90
52963;DHT22;38827;53.024;6.596;2023-12-29T12:30:32;9.80;74.00
52963;DHT22;38827;53.024;6.596;2023-12-29T12:33:03;9.80;73.90
52963;DHT22;38827;53.024;6.596;2023-12-29T12:35:38;9.80;73.90
52963;DHT22;38827;53.024;6.596;2023-12-29T12:38:17;9.90;73.70
52963;DHT22;38827;53.024;6.596;2023-12-29T12:40:50;9.90;73.20
52963;DHT22;38827;53.024;6.596;2023-12-29T12:43:16;9.90;73.20
52963;DHT22;38827;53.024;6.596;2023-12-29T12:45:54;10.00;73.20
52963;DHT22;38827;53.024;6.596;2023-12-29T12:48:32;10.00;72.90
52963;DHT22;38827;53.024;6.596;2023-12-29T12:50:59;10.00;72.70
52963;DHT22;38827;53.024;6.596;2023-12-29T12:53:44;10.00;73.10
52963;DHT22;38827;53.024;6.596;2023-12-29T12:56:10;10.00;73.20
52963;DHT22;38827;53.024;6.596;2023-12-29T12:58:57;9.90;73.00
52963;DHT22;38827;53.024;6.596;2023-12-29T13:01:23;10.00;72.80
52963;DHT22;38827;53.024;6.596;2023-12-29T13:03:52;9.90;72.50
52963;DHT22;38827;53.024;6.596;2023-12-29T13:06:18;9.90;72.50
52963;DHT22;38827;53.024;6.596;2023-12-29T13:08:49;9.90;72.60
52963;DHT22;38827;53.024;6.596;2023-12-29T13:11:37;9.90;72.50
52963;DHT22;38827;53.024;6.596;2023-12-29T13:14:29;9.90;71.80
52963;DHT22;38827;53.024;6.596;2023-12-29T13:17:33;9.90;72.20
52963;DHT22;38827;53.024;6.596;2023-12-29T13:19:59;9.90;72.10
52963;DHT22;38827;53.024;6.596;2023-12-29T13:22:29;9.90;71.70
52963;DHT22;38827;53.024;6.596;2023-12-29T13:24:54;9.80;71.40
52963;DHT22;38827;53.024;6.596;2023-12-29T13:31:05;9.90;70.00
52963;DHT22;38827;53.024;6.596;2023-12-29T13:33:59;9.80;70.10
52963;DHT22;38827;53.024;6.596;2023-12-29T13:42:41;9.70;69.50
52963;DHT22;38827;53.024;6.596;2023-12-29T13:45:21;9.60;70.20
52963;DHT22;38827;53.024;6.596;2023-12-29T13:47:47;9.60;69.70
52963;DHT22;38827;53.024;6.596;2023-12-29T13:50:13;9.50;70.00
52963;DHT22;38827;53.024;6.596;2023-12-29T14:06:11;9.30;69.50
52963;DHT22;38827;53.024;6.596;2023-12-29T14:08:50;9.30;69.60
52963;DHT22;38827;53.024;6.596;2023-12-29T14:22:30;9.20;69.80
52963;DHT22;38827;53.024;6.596;2023-12-29T14:48:43;9.00;69.40
52963;DHT22;38827;53.024;6.596;2023-12-29T14:51:09;9.00;69.70
52963;DHT22;38827;53.024;6.596;2023-12-29T15:07:44;8.90;70.10
52963;DHT22;38827;53.024;6.596;2023-12-29T15:10:23;8.90;70.50
52963;DHT22;38827;53.024;6.596;2023-12-29T15:12:49;8.90;70.00
52963;DHT22;38827;53.024;6.596;2023-12-29T15:15:15;8.90;70.30
52963;DHT22;38827;53.024;6.596;2023-12-29T15:17:43;8.90;70.30
52963;DHT22;38827;53.024;6.596;2023-12-29T15:20:21;8.90;70.20
52963;DHT22;38827;53.024;6.596;2023-12-29T15:22:56;8.90;70.20
52963;DHT22;38827;53.024;6.596;2023-12-29T15:25:33;8.90;70.20
52963;DHT22;38827;53.024;6.596;2023-12-29T15:27:59;8.90;70.30
52963;DHT22;38827;53.024;6.596;2023-12-29T15:30:40;8.90;70.60
52963;DHT22;38827;53.024;6.596;2023-12-29T15:33:16;8.80;70.70
52963;DHT22;38827;53.024;6.596;2023-12-29T15:35:45;8.80;71.10
52963;DHT22;38827;53.024;6.596;2023-12-29T15:38:13;8.70;71.40
52963;DHT22;38827;53.024;6.596;2023-12-29T15:40:39;8.70;71.60
52963;DHT22;38827;53.024;6.596;2023-12-29T15:43:13;8.70;71.80
52963;DHT22;38827;53.024;6.596;2023-12-29T15:45:55;8.70;71.90
52963;DHT22;38827;53.024;6.596;2023-12-29T15:48:23;8.70;72.10
52963;DHT22;38827;53.024;6.596;2023-12-29T15:50:49;8.70;72.30
52963;DHT22;38827;53.024;6.596;2023-12-29T15:53:39;8.70;72.50
52963;DHT22;38827;53.024;6.596;2023-12-29T15:59:16;8.70;72.70
52963;DHT22;38827;53.024;6.596;2023-12-29T16:01:42;8.80;72.80
52963;DHT22;38827;53.024;6.596;2023-12-29T16:04:14;8.80;73.00
52963;DHT22;38827;53.024;6.596;2023-12-29T16:06:43;8.80;72.90
52963;DHT22;38827;53.024;6.596;2023-12-29T16:09:15;8.90;73.00
52963;DHT22;38827;53.024;6.596;2023-12-29T16:11:40;8.90;73.00
52963;DHT22;38827;53.024;6.596;2023-12-29T16:14:22;8.90;73.00
52963;DHT22;38827;53.024;6.596;2023-12-29T16:16:47;8.90;73.00
52963;DHT22;38827;53.024;6.596;2023-12-29T16:19:19;8.90;73.00
52963;DHT22;38827;53.024;6.596;2023-12-29T16:21:44;8.90;73.00
52963;DHT22;38827;53.024;6.596;2023-12-29T16:24:23;8.90;73.10
52963;DHT22;38827;53.024;6.596;2023-12-29T16:29:55;9.00;72.70
52963;DHT22;38827;53.024;6.596;2023-12-29T16:32:45;9.00;72.30
52963;DHT22;38827;53.024;6.596;2023-12-29T16:38:26;9.00;72.30
52963;DHT22;38827;53.024;6.596;2023-12-29T16:41:31;9.00;71.70
52963;DHT22;38827;53.024;6.596;2023-12-29T16:46:52;9.00;71.70
52963;DHT22;38827;53.024;6.596;2023-12-29T16:49:17;9.00;71.60
52963;DHT22;38827;53.024;6.596;2023-12-29T16:51:47;9.00;71.40
52963;DHT22;38827;53.024;6.596;2023-12-29T16:54:25;9.00;71.10
52963;DHT22;38827;53.024;6.596;2023-12-29T16:57:14;9.00;70.40
52963;DHT22;38827;53.024;6.596;2023-12-29T17:05:55;9.00;70.00
52963;DHT22;38827;53.024;6.596;2023-12-29T17:11:08;9.00;70.20
52963;DHT22;38827;53.024;6.596;2023-12-29T17:13:55;9.00;69.90
52963;DHT22;38827;53.024;6.596;2023-12-29T17:16:40;9.00;69.40
52963;DHT22;38827;53.024;6.596;2023-12-29T17:19:06;9.00;69.30
52963;DHT22;38827;53.024;6.596;2023-12-29T17:21:47;9.00;69.70
52963;DHT22;38827;53.024;6.596;2023-12-29T17:24:19;9.00;69.20
52963;DHT22;38827;53.024;6.596;2023-12-29T17:29:46;8.90;69.00
52963;DHT22;38827;53.024;6.596;2023-12-29T17:32:12;8.90;68.30
52963;DHT22;38827;53.024;6.596;2023-12-29T17:34:40;8.80;67.90
52963;DHT22;38827;53.024;6.596;2023-12-29T17:37:12;8.80;66.70
52963;DHT22;38827;53.024;6.596;2023-12-29T17:39:47;8.80;65.50
52963;DHT22;38827;53.024;6.596;2023-12-29T17:42:19;8.80;65.00
52963;DHT22;38827;53.024;6.596;2023-12-29T17:44:46;8.80;65.00
52963;DHT22;38827;53.024;6.596;2023-12-29T17:47:33;8.70;64.80
52963;DHT22;38827;53.024;6.596;2023-12-29T17:50:08;8.70;63.40
52963;DHT22;38827;53.024;6.596;2023-12-29T17:52:44;8.70;63.70
52963;DHT22;38827;53.024;6.596;2023-12-29T17:55:38;8.70;61.70
52963;DHT22;38827;53.024;6.596;2023-12-29T17:58:10;8.60;63.70
52963;DHT22;38827;53.024;6.596;2023-12-29T18:00:56;8.60;64.40
52963;DHT22;38827;53.024;6.596;2023-12-29T18:03:22;8.60;64.10
52963;DHT22;38827;53.024;6.596;2023-12-29T18:06:03;8.60;64.90
52963;DHT22;38827;53.024;6.596;2023-12-29T18:08:41;8.60;65.00
52963;DHT22;38827;53.024;6.596;2023-12-29T18:11:19;8.60;65.00
52963;DHT22;38827;53.024;6.596;2023-12-29T18:13:45;8.60;65.00
52963;DHT22;38827;53.024;6.596;2023-12-29T18:16:18;8.50;65.50
52963;DHT22;38827;53.024;6.596;2023-12-29T18:22:57;8.50;65.00
52963;DHT22;38827;53.024;6.596;2023-12-29T18:25:27;8.50;65.90
52963;DHT22;38827;53.024;6.596;2023-12-29T18:28:00;8.40;66.40
52963;DHT22;38827;53.024;6.596;2023-12-29T18:30:27;8.40;66.40
52963;DHT22;38827;53.024;6.596;2023-12-29T18:32:55;8.40;66.40
52963;DHT22;38827;53.024;6.596;2023-12-29T18:35:27;8.40;66.60
52963;DHT22;38827;53.024;6.596;2023-12-29T18:37:54;8.40;66.60
52963;DHT22;38827;53.024;6.596;2023-12-29T18:40:23;8.40;66.70
52963;DHT22;38827;53.024;6.596;2023-12-29T18:42:52;8.40;66.90
52963;DHT22;38827;53.024;6.596;2023-12-29T18:45:19;8.30;67.20
52963;DHT22;38827;53.024;6.596;2023-12-29T18:50:34;8.30;67.90
52963;DHT22;38827;53.024;6.596;2023-12-29T18:53:00;8.20;68.40
52963;DHT22;38827;53.024;6.596;2023-12-29T18:55:26;8.20;68.60
52963;DHT22;38827;53.024;6.596;2023-12-29T18:57:52;8.20;68.90
52963;DHT22;38827;53.024;6.596;2023-12-29T19:00:23;8.10;69.20